TAF

                                                                                             SANTO DOMINGO 26 DE ENERO DEL 2021

                                                                                             AEROP. INT. LAS AMERICAS JFPG-

 

FTDR31 MDSD 260400Z
TAF 

TAF MDPP 260400Z 2606/2706 00000KT 9999 FEW016 PROB30 2606/2611 8000 -RA BKN016=

TAF MDST 260400Z 2606/2706 11004KT 9999 FEW018 PBOB30 2606/2610 8000 -SH FEW016 BECMG 2604/2606 00000KT=

TAF MDPC 260400Z 2606/2706 08010KT 9999 FEW020=

TAF MDBH 260400Z 2606/2706 13010KT 9999 FEW021 PROB30 2610/2613 8000 –SH BKN016=

TAF MDJB 260400Z 2606/2706 00000KT 9999 SCT018=

TAF MDSD 260400Z 2606/2706 02004KT 9999 FEW018 PROB30 2608/2611 8000 -SH BKN016=

TAF MDLR 260400Z 2606/2706 05005KT 9999 FEW018=

TAF MDCY 260400Z 2606/2706 00000KT 9999 FEW018=

MDPP AEROPUERTO INTERNACIONAL LA UNION PUERTO PLATA

MDST AEROPUERTO INTERNACIONAL DE SANTIAGO

MDPC AEROPUERTO INTERNACIONAL PUNTA CANA

MDBH AEROPUERTO INTERNACIONAL DE BARAHONA

MDJB AEROPUERTO INTERNACIONAL JOAQUIN BALAGUER

MDSD AEROPUERTO INTERNACIONAL LAS AMERICAS

MDLR AEROPUERTO INTERNACIONAL LA ROMANA

MDCY AEROPUERTO INTERNACIONAL DE CATEY

 

BILLY DE LA CRUZ

MDPP/ J. URBAEZ

MDST/ E. BURGOS

MDPC/ M. OTAÑEZ

MDLR/ E. BAUTISTA